sensor_id;sensor_type;location;lat;lon;timestamp;P1;durP1;ratioP1;P2;durP2;ratioP2
66587;SDS011;53446;50.076;8.198;2023-05-21T00:01:16;426.40;;;167.45;;
66587;SDS011;53446;50.076;8.198;2023-05-21T00:03:16;425.70;;;167.13;;
66587;SDS011;53446;50.076;8.198;2023-05-21T00:05:16;428.47;;;169.13;;
66587;SDS011;53446;50.076;8.198;2023-05-21T00:07:17;428.63;;;166.60;;
66587;SDS011;53446;50.076;8.198;2023-05-21T00:09:19;424.35;;;166.25;;
66587;SDS011;53446;50.076;8.198;2023-05-21T00:11:19;424.80;;;166.30;;
66587;SDS011;53446;50.076;8.198;2023-05-21T00:13:21;424.67;;;166.32;;
66587;SDS011;53446;50.076;8.198;2023-05-21T00:15:21;426.43;;;166.40;;
66587;SDS011;53446;50.076;8.198;2023-05-21T00:17:22;427.40;;;167.70;;
66587;SDS011;53446;50.076;8.198;2023-05-21T00:19:22;423.70;;;165.70;;
66587;SDS011;53446;50.076;8.198;2023-05-21T00:21:22;424.33;;;166.10;;
66587;SDS011;53446;50.076;8.198;2023-05-21T00:23:24;421.88;;;164.70;;
66587;SDS011;53446;50.076;8.198;2023-05-21T00:25:25;422.37;;;165.50;;
66587;SDS011;53446;50.076;8.198;2023-05-21T00:27:28;420.40;;;165.10;;
66587;SDS011;53446;50.076;8.198;2023-05-21T00:29:31;417.90;;;164.50;;
66587;SDS011;53446;50.076;8.198;2023-05-21T00:31:31;418.67;;;163.87;;
66587;SDS011;53446;50.076;8.198;2023-05-21T00:33:32;418.85;;;163.40;;
66587;SDS011;53446;50.076;8.198;2023-05-21T00:35:32;418.50;;;163.23;;
66587;SDS011;53446;50.076;8.198;2023-05-21T00:37:36;418.63;;;164.27;;
66587;SDS011;53446;50.076;8.198;2023-05-21T00:39:37;419.75;;;163.43;;
66587;SDS011;53446;50.076;8.198;2023-05-21T00:41:37;419.80;;;164.90;;
66587;SDS011;53446;50.076;8.198;2023-05-21T00:43:39;416.83;;;163.70;;
66587;SDS011;53446;50.076;8.198;2023-05-21T00:45:40;418.90;;;163.03;;
66587;SDS011;53446;50.076;8.198;2023-05-21T00:47:45;422.10;;;165.85;;
66587;SDS011;53446;50.076;8.198;2023-05-21T00:49:47;421.47;;;164.37;;
66587;SDS011;53446;50.076;8.198;2023-05-21T00:51:48;421.50;;;165.95;;
66587;SDS011;53446;50.076;8.198;2023-05-21T00:53:49;418.35;;;164.60;;
66587;SDS011;53446;50.076;8.198;2023-05-21T00:55:51;421.03;;;164.33;;
66587;SDS011;53446;50.076;8.198;2023-05-21T00:57:51;422.60;;;165.25;;
66587;SDS011;53446;50.076;8.198;2023-05-21T00:59:52;421.05;;;163.75;;
66587;SDS011;53446;50.076;8.198;2023-05-21T01:01:53;420.10;;;165.63;;
66587;SDS011;53446;50.076;8.198;2023-05-21T01:03:55;423.52;;;164.73;;
66587;SDS011;53446;50.076;8.198;2023-05-21T01:05:56;420.20;;;164.90;;
66587;SDS011;53446;50.076;8.198;2023-05-21T01:07:58;418.45;;;163.65;;
66587;SDS011;53446;50.076;8.198;2023-05-21T01:10:00;417.50;;;164.17;;
66587;SDS011;53446;50.076;8.198;2023-05-21T01:12:04;416.45;;;162.20;;
66587;SDS011;53446;50.076;8.198;2023-05-21T01:14:05;417.08;;;163.25;;
66587;SDS011;53446;50.076;8.198;2023-05-21T01:16:08;419.63;;;163.43;;
66587;SDS011;53446;50.076;8.198;2023-05-21T01:18:09;420.67;;;163.75;;
66587;SDS011;53446;50.076;8.198;2023-05-21T01:20:11;420.13;;;164.55;;
66587;SDS011;53446;50.076;8.198;2023-05-21T01:22:11;417.87;;;163.63;;
66587;SDS011;53446;50.076;8.198;2023-05-21T01:24:13;419.13;;;164.75;;
66587;SDS011;53446;50.076;8.198;2023-05-21T01:26:14;419.88;;;163.88;;
66587;SDS011;53446;50.076;8.198;2023-05-21T01:28:14;416.13;;;163.37;;
66587;SDS011;53446;50.076;8.198;2023-05-21T01:30:15;419.23;;;163.53;;
66587;SDS011;53446;50.076;8.198;2023-05-21T01:32:21;417.73;;;163.05;;
66587;SDS011;53446;50.076;8.198;2023-05-21T01:34:31;419.02;;;163.07;;
66587;SDS011;53446;50.076;8.198;2023-05-21T01:36:40;417.70;;;163.82;;
66587;SDS011;53446;50.076;8.198;2023-05-21T01:38:56;419.77;;;163.25;;
66587;SDS011;53446;50.076;8.198;2023-05-21T01:41:06;420.63;;;163.67;;
66587;SDS011;53446;50.076;8.198;2023-05-21T01:43:07;421.23;;;164.40;;
66587;SDS011;53446;50.076;8.198;2023-05-21T01:45:08;421.13;;;164.65;;
66587;SDS011;53446;50.076;8.198;2023-05-21T01:47:10;419.45;;;163.93;;
66587;SDS011;53446;50.076;8.198;2023-05-21T01:49:10;420.25;;;164.65;;
66587;SDS011;53446;50.076;8.198;2023-05-21T01:51:11;421.07;;;164.37;;
66587;SDS011;53446;50.076;8.198;2023-05-21T01:53:12;425.02;;;166.30;;
66587;SDS011;53446;50.076;8.198;2023-05-21T01:55:12;421.87;;;165.10;;
66587;SDS011;53446;50.076;8.198;2023-05-21T01:57:13;421.60;;;164.77;;
66587;SDS011;53446;50.076;8.198;2023-05-21T01:59:13;420.93;;;163.97;;
66587;SDS011;53446;50.076;8.198;2023-05-21T02:01:14;422.57;;;165.63;;
66587;SDS011;53446;50.076;8.198;2023-05-21T02:03:14;421.10;;;166.00;;
66587;SDS011;53446;50.076;8.198;2023-05-21T02:05:15;423.23;;;166.63;;
66587;SDS011;53446;50.076;8.198;2023-05-21T02:07:15;423.33;;;164.63;;
66587;SDS011;53446;50.076;8.198;2023-05-21T02:09:17;423.65;;;165.68;;
66587;SDS011;53446;50.076;8.198;2023-05-21T02:11:17;420.97;;;163.73;;
66587;SDS011;53446;50.076;8.198;2023-05-21T02:13:17;421.07;;;165.23;;
66587;SDS011;53446;50.076;8.198;2023-05-21T02:15:21;422.48;;;165.30;;
66587;SDS011;53446;50.076;8.198;2023-05-21T02:17:23;422.60;;;164.83;;
66587;SDS011;53446;50.076;8.198;2023-05-21T02:19:25;422.63;;;164.52;;
66587;SDS011;53446;50.076;8.198;2023-05-21T02:21:26;421.63;;;164.68;;
66587;SDS011;53446;50.076;8.198;2023-05-21T02:23:26;420.63;;;165.27;;
66587;SDS011;53446;50.076;8.198;2023-05-21T02:25:26;421.93;;;164.63;;
66587;SDS011;53446;50.076;8.198;2023-05-21T02:27:27;423.73;;;165.33;;
66587;SDS011;53446;50.076;8.198;2023-05-21T02:29:31;422.30;;;164.50;;
66587;SDS011;53446;50.076;8.198;2023-05-21T02:31:31;422.95;;;164.88;;
66587;SDS011;53446;50.076;8.198;2023-05-21T02:33:31;422.33;;;165.10;;
66587;SDS011;53446;50.076;8.198;2023-05-21T02:35:32;421.03;;;164.47;;
66587;SDS011;53446;50.076;8.198;2023-05-21T02:37:32;421.03;;;164.43;;
66587;SDS011;53446;50.076;8.198;2023-05-21T02:39:33;421.55;;;165.13;;
66587;SDS011;53446;50.076;8.198;2023-05-21T02:41:33;423.73;;;165.18;;
66587;SDS011;53446;50.076;8.198;2023-05-21T02:43:41;421.37;;;165.60;;
66587;SDS011;53446;50.076;8.198;2023-05-21T02:45:41;422.80;;;166.07;;
66587;SDS011;53446;50.076;8.198;2023-05-21T02:47:41;423.10;;;165.57;;
66587;SDS011;53446;50.076;8.198;2023-05-21T02:49:42;421.53;;;164.90;;
66587;SDS011;53446;50.076;8.198;2023-05-21T02:51:42;424.10;;;165.37;;
66587;SDS011;53446;50.076;8.198;2023-05-21T02:53:42;422.00;;;165.20;;
66587;SDS011;53446;50.076;8.198;2023-05-21T02:55:43;423.10;;;166.03;;
66587;SDS011;53446;50.076;8.198;2023-05-21T02:57:43;425.10;;;167.93;;
66587;SDS011;53446;50.076;8.198;2023-05-21T02:59:43;424.70;;;167.77;;
66587;SDS011;53446;50.076;8.198;2023-05-21T03:01:44;424.40;;;165.18;;
66587;SDS011;53446;50.076;8.198;2023-05-21T03:03:45;423.83;;;167.17;;
66587;SDS011;53446;50.076;8.198;2023-05-21T03:05:45;423.73;;;167.10;;
66587;SDS011;53446;50.076;8.198;2023-05-21T03:07:45;424.20;;;169.87;;
66587;SDS011;53446;50.076;8.198;2023-05-21T03:09:46;424.60;;;166.93;;
66587;SDS011;53446;50.076;8.198;2023-05-21T03:11:46;425.20;;;167.00;;
66587;SDS011;53446;50.076;8.198;2023-05-21T03:13:47;424.08;;;166.27;;
66587;SDS011;53446;50.076;8.198;2023-05-21T03:15:47;425.43;;;167.87;;
66587;SDS011;53446;50.076;8.198;2023-05-21T03:17:48;427.40;;;167.50;;
66587;SDS011;53446;50.076;8.198;2023-05-21T03:19:49;425.95;;;167.15;;
66587;SDS011;53446;50.076;8.198;2023-05-21T03:21:49;424.90;;;166.40;;
66587;SDS011;53446;50.076;8.198;2023-05-21T03:23:50;424.53;;;165.73;;
66587;SDS011;53446;50.076;8.198;2023-05-21T03:25:50;422.23;;;164.90;;
66587;SDS011;53446;50.076;8.198;2023-05-21T03:27:50;424.60;;;167.47;;
66587;SDS011;53446;50.076;8.198;2023-05-21T03:29:51;422.67;;;166.77;;
66587;SDS011;53446;50.076;8.198;2023-05-21T03:31:53;426.30;;;166.65;;
66587;SDS011;53446;50.076;8.198;2023-05-21T03:33:54;426.98;;;166.70;;
66587;SDS011;53446;50.076;8.198;2023-05-21T03:35:54;426.47;;;167.20;;
66587;SDS011;53446;50.076;8.198;2023-05-21T03:37:55;431.90;;;171.37;;
66587;SDS011;53446;50.076;8.198;2023-05-21T03:39:55;428.03;;;169.00;;
66587;SDS011;53446;50.076;8.198;2023-05-21T03:41:55;428.67;;;168.13;;
66587;SDS011;53446;50.076;8.198;2023-05-21T03:43:55;437.53;;;169.97;;
66587;SDS011;53446;50.076;8.198;2023-05-21T03:45:56;441.13;;;174.00;;
66587;SDS011;53446;50.076;8.198;2023-05-21T03:47:56;448.20;;;176.40;;
66587;SDS011;53446;50.076;8.198;2023-05-21T03:49:56;448.98;;;176.85;;
66587;SDS011;53446;50.076;8.198;2023-05-21T03:51:57;454.40;;;178.75;;
66587;SDS011;53446;50.076;8.198;2023-05-21T03:53:57;456.40;;;180.37;;
66587;SDS011;53446;50.076;8.198;2023-05-21T03:55:58;459.00;;;181.67;;
66587;SDS011;53446;50.076;8.198;2023-05-21T03:57:58;458.58;;;179.98;;
66587;SDS011;53446;50.076;8.198;2023-05-21T03:59:58;458.55;;;180.70;;
66587;SDS011;53446;50.076;8.198;2023-05-21T04:01:59;456.73;;;180.07;;
66587;SDS011;53446;50.076;8.198;2023-05-21T04:03:59;456.77;;;180.73;;
66587;SDS011;53446;50.076;8.198;2023-05-21T04:06:00;456.80;;;181.30;;
66587;SDS011;53446;50.076;8.198;2023-05-21T04:08:01;457.25;;;180.15;;
66587;SDS011;53446;50.076;8.198;2023-05-21T04:10:01;456.00;;;181.50;;
66587;SDS011;53446;50.076;8.198;2023-05-21T04:12:03;453.10;;;179.20;;
66587;SDS011;53446;50.076;8.198;2023-05-21T04:14:03;451.65;;;178.98;;
66587;SDS011;53446;50.076;8.198;2023-05-21T04:16:03;452.67;;;179.32;;
66587;SDS011;53446;50.076;8.198;2023-05-21T04:18:07;452.37;;;178.83;;
66587;SDS011;53446;50.076;8.198;2023-05-21T04:20:07;450.73;;;177.82;;
66587;SDS011;53446;50.076;8.198;2023-05-21T04:22:09;450.63;;;177.68;;
66587;SDS011;53446;50.076;8.198;2023-05-21T04:24:10;448.13;;;176.70;;
66587;SDS011;53446;50.076;8.198;2023-05-21T04:26:10;449.52;;;176.52;;
66587;SDS011;53446;50.076;8.198;2023-05-21T04:28:11;447.70;;;176.70;;
66587;SDS011;53446;50.076;8.198;2023-05-21T04:30:11;448.67;;;177.13;;
66587;SDS011;53446;50.076;8.198;2023-05-21T04:32:12;449.93;;;177.00;;
66587;SDS011;53446;50.076;8.198;2023-05-21T04:34:14;447.45;;;176.40;;
66587;SDS011;53446;50.076;8.198;2023-05-21T04:36:17;446.75;;;175.13;;
66587;SDS011;53446;50.076;8.198;2023-05-21T04:38:18;445.97;;;175.57;;
66587;SDS011;53446;50.076;8.198;2023-05-21T04:40:18;446.00;;;175.77;;
66587;SDS011;53446;50.076;8.198;2023-05-21T04:42:23;447.73;;;175.00;;
66587;SDS011;53446;50.076;8.198;2023-05-21T04:44:23;444.50;;;175.13;;
66587;SDS011;53446;50.076;8.198;2023-05-21T04:46:24;447.73;;;176.70;;
66587;SDS011;53446;50.076;8.198;2023-05-21T04:48:24;444.83;;;174.60;;
66587;SDS011;53446;50.076;8.198;2023-05-21T04:50:25;446.23;;;174.63;;
66587;SDS011;53446;50.076;8.198;2023-05-21T04:52:26;445.80;;;176.07;;
66587;SDS011;53446;50.076;8.198;2023-05-21T04:54:26;445.42;;;174.80;;
66587;SDS011;53446;50.076;8.198;2023-05-21T04:56:27;443.23;;;174.27;;
66587;SDS011;53446;50.076;8.198;2023-05-21T04:58:28;446.00;;;174.63;;
66587;SDS011;53446;50.076;8.198;2023-05-21T05:00:28;444.87;;;175.03;;
66587;SDS011;53446;50.076;8.198;2023-05-21T05:02:28;443.83;;;174.93;;
66587;SDS011;53446;50.076;8.198;2023-05-21T05:04:30;445.00;;;175.53;;
66587;SDS011;53446;50.076;8.198;2023-05-21T05:06:30;444.73;;;174.05;;
66587;SDS011;53446;50.076;8.198;2023-05-21T05:08:30;441.83;;;174.67;;
66587;SDS011;53446;50.076;8.198;2023-05-21T05:10:31;443.70;;;175.83;;
66587;SDS011;53446;50.076;8.198;2023-05-21T05:12:31;440.92;;;173.85;;
66587;SDS011;53446;50.076;8.198;2023-05-21T05:14:31;440.73;;;172.48;;
66587;SDS011;53446;50.076;8.198;2023-05-21T05:16:32;440.63;;;172.83;;
66587;SDS011;53446;50.076;8.198;2023-05-21T05:18:33;439.63;;;173.33;;
66587;SDS011;53446;50.076;8.198;2023-05-21T05:20:33;439.88;;;171.95;;
66587;SDS011;53446;50.076;8.198;2023-05-21T05:22:33;440.80;;;174.30;;
66587;SDS011;53446;50.076;8.198;2023-05-21T05:24:34;439.67;;;172.57;;
66587;SDS011;53446;50.076;8.198;2023-05-21T05:26:34;439.27;;;172.53;;
66587;SDS011;53446;50.076;8.198;2023-05-21T05:28:34;437.80;;;172.23;;
66587;SDS011;53446;50.076;8.198;2023-05-21T05:30:37;438.63;;;171.77;;
66587;SDS011;53446;50.076;8.198;2023-05-21T05:32:38;438.10;;;171.38;;
66587;SDS011;53446;50.076;8.198;2023-05-21T05:34:39;436.07;;;172.03;;
66587;SDS011;53446;50.076;8.198;2023-05-21T05:36:39;436.50;;;172.80;;
66587;SDS011;53446;50.076;8.198;2023-05-21T05:38:39;438.27;;;171.77;;
66587;SDS011;53446;50.076;8.198;2023-05-21T05:40:40;437.45;;;172.75;;
66587;SDS011;53446;50.076;8.198;2023-05-21T05:42:40;437.77;;;172.03;;
66587;SDS011;53446;50.076;8.198;2023-05-21T05:44:40;437.00;;;173.90;;
66587;SDS011;53446;50.076;8.198;2023-05-21T05:46:40;435.90;;;172.07;;
66587;SDS011;53446;50.076;8.198;2023-05-21T05:48:41;434.73;;;171.67;;
66587;SDS011;53446;50.076;8.198;2023-05-21T05:50:41;433.80;;;171.20;;
66587;SDS011;53446;50.076;8.198;2023-05-21T05:52:41;435.60;;;172.97;;
66587;SDS011;53446;50.076;8.198;2023-05-21T05:54:42;435.23;;;171.03;;
66587;SDS011;53446;50.076;8.198;2023-05-21T05:56:42;435.40;;;170.43;;
66587;SDS011;53446;50.076;8.198;2023-05-21T05:58:42;433.55;;;171.27;;
66587;SDS011;53446;50.076;8.198;2023-05-21T06:00:43;432.77;;;169.37;;
66587;SDS011;53446;50.076;8.198;2023-05-21T06:02:43;432.83;;;172.33;;
66587;SDS011;53446;50.076;8.198;2023-05-21T06:04:43;431.03;;;170.30;;
66587;SDS011;53446;50.076;8.198;2023-05-21T06:06:44;430.70;;;169.17;;
66587;SDS011;53446;50.076;8.198;2023-05-21T06:08:45;430.50;;;170.32;;
66587;SDS011;53446;50.076;8.198;2023-05-21T06:10:45;428.77;;;169.97;;
66587;SDS011;53446;50.076;8.198;2023-05-21T06:12:45;434.50;;;177.33;;
66587;SDS011;53446;50.076;8.198;2023-05-21T06:14:46;427.07;;;167.87;;
66587;SDS011;53446;50.076;8.198;2023-05-21T06:16:47;428.23;;;168.73;;
66587;SDS011;53446;50.076;8.198;2023-05-21T06:18:48;424.67;;;168.20;;
66587;SDS011;53446;50.076;8.198;2023-05-21T06:20:48;424.43;;;166.47;;
66587;SDS011;53446;50.076;8.198;2023-05-21T06:22:49;421.13;;;165.10;;
66587;SDS011;53446;50.076;8.198;2023-05-21T06:24:49;420.63;;;165.33;;
66587;SDS011;53446;50.076;8.198;2023-05-21T06:26:50;417.80;;;162.80;;
66587;SDS011;53446;50.076;8.198;2023-05-21T06:28:50;418.35;;;163.60;;
66587;SDS011;53446;50.076;8.198;2023-05-21T06:30:51;416.00;;;164.03;;
66587;SDS011;53446;50.076;8.198;2023-05-21T06:32:51;415.93;;;163.13;;
66587;SDS011;53446;50.076;8.198;2023-05-21T06:34:51;414.33;;;163.67;;
66587;SDS011;53446;50.076;8.198;2023-05-21T06:36:52;411.23;;;160.10;;
66587;SDS011;53446;50.076;8.198;2023-05-21T06:38:52;412.00;;;162.30;;
66587;SDS011;53446;50.076;8.198;2023-05-21T06:40:52;410.87;;;160.23;;
66587;SDS011;53446;50.076;8.198;2023-05-21T06:42:53;410.77;;;160.53;;
66587;SDS011;53446;50.076;8.198;2023-05-21T06:44:55;406.20;;;160.27;;
66587;SDS011;53446;50.076;8.198;2023-05-21T06:46:55;409.53;;;159.63;;
66587;SDS011;53446;50.076;8.198;2023-05-21T06:48:55;403.27;;;158.43;;
66587;SDS011;53446;50.076;8.198;2023-05-21T06:50:56;400.00;;;158.13;;
66587;SDS011;53446;50.076;8.198;2023-05-21T06:52:56;400.27;;;158.27;;
66587;SDS011;53446;50.076;8.198;2023-05-21T06:54:56;398.60;;;157.87;;
66587;SDS011;53446;50.076;8.198;2023-05-21T06:56:57;396.48;;;156.20;;
66587;SDS011;53446;50.076;8.198;2023-05-21T06:58:57;395.85;;;156.30;;
66587;SDS011;53446;50.076;8.198;2023-05-21T07:00:58;394.30;;;156.30;;
66587;SDS011;53446;50.076;8.198;2023-05-21T07:02:59;385.67;;;155.00;;
66587;SDS011;53446;50.076;8.198;2023-05-21T07:05:00;385.63;;;155.20;;
66587;SDS011;53446;50.076;8.198;2023-05-21T07:07:00;384.60;;;153.67;;
66587;SDS011;53446;50.076;8.198;2023-05-21T07:09:03;378.92;;;153.95;;
66587;SDS011;53446;50.076;8.198;2023-05-21T07:11:04;377.45;;;152.98;;
66587;SDS011;53446;50.076;8.198;2023-05-21T07:13:05;374.13;;;151.10;;
66587;SDS011;53446;50.076;8.198;2023-05-21T07:15:05;370.80;;;151.53;;
66587;SDS011;53446;50.076;8.198;2023-05-21T07:17:06;366.27;;;149.38;;
66587;SDS011;53446;50.076;8.198;2023-05-21T07:19:07;366.27;;;150.10;;
66587;SDS011;53446;50.076;8.198;2023-05-21T07:21:07;366.67;;;149.90;;
66587;SDS011;53446;50.076;8.198;2023-05-21T07:23:08;356.80;;;146.57;;
66587;SDS011;53446;50.076;8.198;2023-05-21T07:25:08;351.38;;;146.73;;
66587;SDS011;53446;50.076;8.198;2023-05-21T07:27:08;344.27;;;144.67;;
66587;SDS011;53446;50.076;8.198;2023-05-21T07:29:09;342.47;;;143.57;;
66587;SDS011;53446;50.076;8.198;2023-05-21T07:31:09;341.43;;;144.50;;
66587;SDS011;53446;50.076;8.198;2023-05-21T07:33:11;335.80;;;143.02;;
66587;SDS011;53446;50.076;8.198;2023-05-21T07:35:11;330.30;;;142.03;;
66587;SDS011;53446;50.076;8.198;2023-05-21T07:37:12;325.27;;;140.87;;
66587;SDS011;53446;50.076;8.198;2023-05-21T07:39:12;319.55;;;139.38;;
66587;SDS011;53446;50.076;8.198;2023-05-21T07:41:13;314.97;;;138.37;;
66587;SDS011;53446;50.076;8.198;2023-05-21T07:43:16;309.50;;;137.15;;
66587;SDS011;53446;50.076;8.198;2023-05-21T07:45:17;307.13;;;137.30;;
66587;SDS011;53446;50.076;8.198;2023-05-21T07:47:17;304.33;;;136.17;;
66587;SDS011;53446;50.076;8.198;2023-05-21T07:49:20;294.98;;;133.27;;
66587;SDS011;53446;50.076;8.198;2023-05-21T07:51:21;286.23;;;132.70;;
66587;SDS011;53446;50.076;8.198;2023-05-21T07:53:21;281.40;;;130.87;;
66587;SDS011;53446;50.076;8.198;2023-05-21T07:55:21;280.70;;;131.47;;
66587;SDS011;53446;50.076;8.198;2023-05-21T07:57:22;276.73;;;129.77;;
66587;SDS011;53446;50.076;8.198;2023-05-21T07:59:23;277.30;;;131.63;;
66587;SDS011;53446;50.076;8.198;2023-05-21T08:01:23;275.92;;;131.35;;
66587;SDS011;53446;50.076;8.198;2023-05-21T08:03:28;269.05;;;129.07;;
66587;SDS011;53446;50.076;8.198;2023-05-21T08:05:29;267.35;;;128.25;;
66587;SDS011;53446;50.076;8.198;2023-05-21T08:07:30;276.37;;;131.07;;
66587;SDS011;53446;50.076;8.198;2023-05-21T08:09:31;265.88;;;128.18;;
66587;SDS011;53446;50.076;8.198;2023-05-21T08:11:31;266.63;;;127.57;;
66587;SDS011;53446;50.076;8.198;2023-05-21T08:13:32;261.50;;;127.70;;
66587;SDS011;53446;50.076;8.198;2023-05-21T08:15:32;258.50;;;127.47;;
66587;SDS011;53446;50.076;8.198;2023-05-21T08:17:32;260.30;;;127.60;;
66587;SDS011;53446;50.076;8.198;2023-05-21T08:19:36;259.83;;;125.72;;
66587;SDS011;53446;50.076;8.198;2023-05-21T08:21:36;254.40;;;125.97;;
66587;SDS011;53446;50.076;8.198;2023-05-21T08:23:37;259.00;;;125.65;;
66587;SDS011;53446;50.076;8.198;2023-05-21T08:25:37;254.83;;;125.33;;
66587;SDS011;53446;50.076;8.198;2023-05-21T08:27:37;256.03;;;126.17;;
66587;SDS011;53446;50.076;8.198;2023-05-21T08:29:37;256.77;;;126.40;;
66587;SDS011;53446;50.076;8.198;2023-05-21T08:31:38;251.57;;;125.37;;
66587;SDS011;53446;50.076;8.198;2023-05-21T08:33:39;251.63;;;124.75;;
66587;SDS011;53446;50.076;8.198;2023-05-21T08:35:49;258.10;;;126.25;;
66587;SDS011;53446;50.076;8.198;2023-05-21T08:37:52;263.67;;;127.27;;
66587;SDS011;53446;50.076;8.198;2023-05-21T08:39:52;258.20;;;126.05;;
66587;SDS011;53446;50.076;8.198;2023-05-21T08:41:54;263.20;;;126.35;;
66587;SDS011;53446;50.076;8.198;2023-05-21T08:43:56;257.27;;;126.37;;
66587;SDS011;53446;50.076;8.198;2023-05-21T08:46:00;253.85;;;126.65;;
66587;SDS011;53446;50.076;8.198;2023-05-21T08:48:02;251.52;;;125.65;;
66587;SDS011;53446;50.076;8.198;2023-05-21T08:50:03;245.82;;;123.65;;
66587;SDS011;53446;50.076;8.198;2023-05-21T08:52:04;250.13;;;124.95;;
66587;SDS011;53446;50.076;8.198;2023-05-21T08:54:06;244.50;;;122.45;;
66587;SDS011;53446;50.076;8.198;2023-05-21T08:56:06;245.10;;;123.55;;
66587;SDS011;53446;50.076;8.198;2023-05-21T08:58:06;248.47;;;123.83;;
66587;SDS011;53446;50.076;8.198;2023-05-21T09:00:07;253.57;;;125.47;;
66587;SDS011;53446;50.076;8.198;2023-05-21T09:02:07;250.97;;;125.00;;
66587;SDS011;53446;50.076;8.198;2023-05-21T09:04:11;248.88;;;123.05;;
66587;SDS011;53446;50.076;8.198;2023-05-21T09:06:13;246.10;;;123.95;;
66587;SDS011;53446;50.076;8.198;2023-05-21T09:08:17;240.93;;;122.10;;
66587;SDS011;53446;50.076;8.198;2023-05-21T09:10:18;240.90;;;122.22;;
66587;SDS011;53446;50.076;8.198;2023-05-21T09:12:23;236.25;;;122.47;;
66587;SDS011;53446;50.076;8.198;2023-05-21T09:14:27;238.68;;;122.47;;
66587;SDS011;53446;50.076;8.198;2023-05-21T09:16:27;232.07;;;119.97;;
66587;SDS011;53446;50.076;8.198;2023-05-21T09:18:27;228.90;;;119.63;;
66587;SDS011;53446;50.076;8.198;2023-05-21T09:20:28;227.87;;;119.77;;
66587;SDS011;53446;50.076;8.198;2023-05-21T09:22:28;226.97;;;119.97;;
66587;SDS011;53446;50.076;8.198;2023-05-21T09:24:31;227.73;;;120.23;;
66587;SDS011;53446;50.076;8.198;2023-05-21T09:26:32;226.40;;;119.43;;
66587;SDS011;53446;50.076;8.198;2023-05-21T09:28:33;224.82;;;117.75;;
66587;SDS011;53446;50.076;8.198;2023-05-21T09:30:35;228.13;;;119.78;;
66587;SDS011;53446;50.076;8.198;2023-05-21T09:32:38;227.80;;;119.57;;
66587;SDS011;53446;50.076;8.198;2023-05-21T09:34:39;235.80;;;120.75;;
66587;SDS011;53446;50.076;8.198;2023-05-21T09:36:40;230.63;;;119.33;;
66587;SDS011;53446;50.076;8.198;2023-05-21T09:38:40;231.67;;;122.73;;
66587;SDS011;53446;50.076;8.198;2023-05-21T09:40:43;232.20;;;120.53;;
66587;SDS011;53446;50.076;8.198;2023-05-21T09:42:47;238.43;;;121.70;;
66587;SDS011;53446;50.076;8.198;2023-05-21T09:44:52;233.90;;;120.65;;
66587;SDS011;53446;50.076;8.198;2023-05-21T09:46:56;236.10;;;122.17;;
66587;SDS011;53446;50.076;8.198;2023-05-21T09:48:59;230.07;;;120.65;;
66587;SDS011;53446;50.076;8.198;2023-05-21T09:53:16;229.23;;;119.78;;
66587;SDS011;53446;50.076;8.198;2023-05-21T09:55:16;230.60;;;120.90;;
66587;SDS011;53446;50.076;8.198;2023-05-21T09:57:21;230.33;;;120.30;;
66587;SDS011;53446;50.076;8.198;2023-05-21T09:59:22;227.77;;;119.63;;
66587;SDS011;53446;50.076;8.198;2023-05-21T10:01:23;231.57;;;119.93;;
66587;SDS011;53446;50.076;8.198;2023-05-21T10:03:23;222.53;;;118.27;;
66587;SDS011;53446;50.076;8.198;2023-05-21T10:05:26;210.70;;;116.05;;
66587;SDS011;53446;50.076;8.198;2023-05-21T10:07:27;210.98;;;115.65;;
66587;SDS011;53446;50.076;8.198;2023-05-21T10:09:28;208.43;;;114.20;;
66587;SDS011;53446;50.076;8.198;2023-05-21T10:11:29;204.52;;;111.90;;
66587;SDS011;53446;50.076;8.198;2023-05-21T10:13:30;191.85;;;108.78;;
66587;SDS011;53446;50.076;8.198;2023-05-21T10:16:06;192.73;;;108.65;;
66587;SDS011;53446;50.076;8.198;2023-05-21T10:18:00;193.20;;;109.90;;
66587;SDS011;53446;50.076;8.198;2023-05-21T10:20:02;184.70;;;107.55;;
66587;SDS011;53446;50.076;8.198;2023-05-21T10:22:06;183.15;;;107.35;;
66587;SDS011;53446;50.076;8.198;2023-05-21T10:24:09;178.60;;;105.87;;
66587;SDS011;53446;50.076;8.198;2023-05-21T10:26:09;179.65;;;105.93;;
66587;SDS011;53446;50.076;8.198;2023-05-21T10:28:11;178.02;;;104.80;;
66587;SDS011;53446;50.076;8.198;2023-05-21T10:30:15;176.43;;;105.00;;
66587;SDS011;53446;50.076;8.198;2023-05-21T10:32:17;174.00;;;104.38;;
66587;SDS011;53446;50.076;8.198;2023-05-21T10:34:17;180.10;;;105.63;;
66587;SDS011;53446;50.076;8.198;2023-05-21T10:36:18;179.98;;;105.68;;
66587;SDS011;53446;50.076;8.198;2023-05-21T10:38:19;178.32;;;104.30;;
66587;SDS011;53446;50.076;8.198;2023-05-21T10:40:20;179.02;;;104.78;;
66587;SDS011;53446;50.076;8.198;2023-05-21T10:42:23;180.27;;;106.07;;
66587;SDS011;53446;50.076;8.198;2023-05-21T10:44:43;178.52;;;105.20;;
66587;SDS011;53446;50.076;8.198;2023-05-21T10:46:55;170.40;;;102.38;;
66587;SDS011;53446;50.076;8.198;2023-05-21T10:49:17;174.60;;;103.75;;
66587;SDS011;53446;50.076;8.198;2023-05-21T10:51:44;169.35;;;102.75;;
66587;SDS011;53446;50.076;8.198;2023-05-21T10:58:35;163.63;;;102.03;;
66587;SDS011;53446;50.076;8.198;2023-05-21T11:00:38;156.82;;;98.82;;
66587;SDS011;53446;50.076;8.198;2023-05-21T11:02:38;146.95;;;96.25;;
66587;SDS011;53446;50.076;8.198;2023-05-21T11:04:40;150.88;;;96.53;;
66587;SDS011;53446;50.076;8.198;2023-05-21T11:06:48;138.15;;;92.90;;
66587;SDS011;53446;50.076;8.198;2023-05-21T11:08:48;140.38;;;92.05;;
66587;SDS011;53446;50.076;8.198;2023-05-21T11:10:51;136.95;;;90.95;;
66587;SDS011;53446;50.076;8.198;2023-05-21T11:13:09;141.15;;;91.85;;
66587;SDS011;53446;50.076;8.198;2023-05-21T11:15:11;138.88;;;92.13;;
66587;SDS011;53446;50.076;8.198;2023-05-21T11:17:15;130.98;;;88.20;;
66587;SDS011;53446;50.076;8.198;2023-05-21T11:19:15;129.03;;;87.80;;
66587;SDS011;53446;50.076;8.198;2023-05-21T11:21:16;128.30;;;87.90;;
66587;SDS011;53446;50.076;8.198;2023-05-21T11:23:19;131.73;;;89.22;;
66587;SDS011;53446;50.076;8.198;2023-05-21T11:25:19;139.43;;;92.20;;
66587;SDS011;53446;50.076;8.198;2023-05-21T11:27:30;136.88;;;90.40;;
66587;SDS011;53446;50.076;8.198;2023-05-21T11:29:43;140.63;;;90.83;;
66587;SDS011;53446;50.076;8.198;2023-05-21T11:31:44;131.15;;;89.97;;
66587;SDS011;53446;50.076;8.198;2023-05-21T11:33:46;138.13;;;92.63;;
66587;SDS011;53446;50.076;8.198;2023-05-21T11:37:48;127.60;;;87.73;;
66587;SDS011;53446;50.076;8.198;2023-05-21T11:39:49;55.53;;;37.47;;